Time;durP1;ratioP1;P1;durP2;ratioP2;P2;SDS_P1;SDS_P2;PMS_P1;PMS_P2;Temp;Humidity;BMP_temperature;BMP_pressure;BME280_temperature;BME280_humidity;BME280_pressure;Samples;Min_cycle;Max_cycle;Signal;HPM_P1;HPM_P2
2021/03/01 00:00:33;;;;;;;23.60;14.87;;;2.00;99.90;;;;;;5007627;28;20401;-77
2021/03/01 00:02:58;;;;;;;23.53;15.70;;;2.30;99.90;;;;;;5009840;28;20868;-77
2021/03/01 00:05:24;;;;;;;24.50;15.93;;;2.60;99.90;;;;;;5004983;28;20406;-77
2021/03/01 00:07:50;;;;;;;23.60;15.37;;;2.50;99.90;;;;;;5004788;28;20444;-78
2021/03/01 00:10:17;;;;;;;24.83;16.27;;;2.10;99.90;;;;;;4997050;28;20890;-79
2021/03/01 00:12:44;;;;;;;30.27;18.55;;;2.30;99.90;;;;;;5006824;28;20401;-76
2021/03/01 00:15:14;;;;;;;25.55;16.90;;;2.50;99.90;;;;;;5001194;28;20910;-77
2021/03/01 00:17:40;;;;;;;27.27;18.52;;;2.60;99.90;;;;;;5003280;28;20384;-77
2021/03/01 00:20:09;;;;;;;26.73;18.20;;;2.70;99.90;;;;;;5003645;28;20974;-78
2021/03/01 00:22:34;;;;;;;26.52;18.10;;;2.50;99.90;;;;;;5025619;28;20895;-77
2021/03/01 00:25:00;;;;;;;28.55;19.02;;;2.50;99.90;;;;;;5008601;28;20400;-77
2021/03/01 00:27:26;;;;;;;30.23;18.83;;;;;;;;;;4999985;28;20442;-77
2021/03/01 00:29:51;;;;;;;29.92;19.33;;;2.60;99.90;;;;;;5007428;28;20415;-77
2021/03/01 00:32:17;;;;;;;29.55;19.17;;;2.60;99.90;;;;;;5004707;28;20464;-77
2021/03/01 00:34:43;;;;;;;28.75;19.80;;;2.60;99.90;;;;;;5012995;28;20396;-78
2021/03/01 00:37:08;;;;;;;29.83;20.75;;;2.40;99.90;;;;;;5006589;28;20456;-77
2021/03/01 00:39:34;;;;;;;31.00;21.17;;;2.60;99.90;;;;;;5004037;28;20398;-77
2021/03/01 00:42:00;;;;;;;29.35;19.70;;;2.60;99.90;;;;;;5001663;28;20534;-77
2021/03/01 00:44:25;;;;;;;29.25;19.45;;;2.60;99.90;;;;;;5009583;28;20917;-76
2021/03/01 00:46:51;;;;;;;35.33;21.80;;;2.60;99.90;;;;;;5002202;28;20406;-77
2021/03/01 00:49:16;;;;;;;29.30;17.80;;;2.60;99.90;;;;;;5006646;28;20393;-77
2021/03/01 00:51:42;;;;;;;24.70;15.80;;;2.40;99.90;;;;;;4980515;28;20465;-77
2021/03/01 00:54:07;;;;;;;26.50;16.33;;;2.10;99.90;;;;;;4999539;28;21104;-77
2021/03/01 00:56:33;;;;;;;25.25;16.60;;;1.80;99.90;;;;;;4996308;28;20390;-77
2021/03/01 00:58:59;;;;;;;25.27;16.15;;;1.90;99.90;;;;;;5002986;28;20451;-77
2021/03/01 01:01:24;;;;;;;28.85;17.98;;;1.40;99.90;;;;;;5001671;28;20385;-77
2021/03/01 01:03:50;;;;;;;29.55;18.20;;;1.40;99.90;;;;;;5005396;28;20384;-77
2021/03/01 01:06:16;;;;;;;27.97;17.27;;;1.60;99.90;;;;;;5001346;28;20385;-77
2021/03/01 01:08:41;;;;;;;28.40;18.83;;;2.10;99.90;;;;;;4994627;28;20869;-78
2021/03/01 01:11:07;;;;;;;29.27;19.77;;;2.20;99.90;;;;;;5001342;28;20757;-77
2021/03/01 01:13:32;;;;;;;27.90;20.93;;;2.00;99.90;;;;;;4994847;28;20447;-77
2021/03/01 01:16:01;;;;;;;30.80;21.37;;;2.10;99.90;;;;;;5000081;28;20394;-78
2021/03/01 01:18:27;;;;;;;30.13;21.40;;;1.60;99.90;;;;;;4991971;28;20392;-78
2021/03/01 01:20:53;;;;;;;32.22;24.27;;;1.90;99.90;;;;;;5001484;28;20395;-77
2021/03/01 01:23:19;;;;;;;35.47;26.10;;;1.70;99.90;;;;;;4991043;28;20728;-77
2021/03/01 01:25:45;;;;;;;36.65;27.38;;;1.80;99.90;;;;;;4990144;28;20413;-78
2021/03/01 01:28:10;;;;;;;35.20;26.20;;;1.50;99.90;;;;;;5003607;28;20389;-77
2021/03/01 01:30:36;;;;;;;38.17;28.20;;;1.30;99.90;;;;;;4988597;28;20440;-78
2021/03/01 01:33:02;;;;;;;36.77;27.23;;;1.50;99.90;;;;;;4990140;28;20737;-79
2021/03/01 01:35:27;;;;;;;38.42;27.52;;;3.60;99.90;;;;;;5000664;28;20411;-78
2021/03/01 01:37:53;;;;;;;37.13;27.33;;;1.20;99.90;;;;;;4984567;28;20408;-77
2021/03/01 01:40:21;;;;;;;36.23;26.90;;;1.30;99.90;;;;;;4973888;28;21866;-77
2021/03/01 01:42:51;;;;;;;39.17;28.83;;;1.30;99.90;;;;;;4983361;28;20477;-78
2021/03/01 01:45:21;;;;;;;39.85;29.10;;;1.10;99.90;;;;;;4977040;28;20966;-76
2021/03/01 01:47:49;;;;;;;40.33;28.80;;;;;;;;;;4985056;28;20390;-77
2021/03/01 01:50:35;;;;;;;39.88;29.13;;;1.20;99.90;;;;;;4988278;28;20387;-77
2021/03/01 01:53:01;;;;;;;43.08;31.00;;;1.70;99.90;;;;;;4969140;28;20429;-77
2021/03/01 01:55:28;;;;;;;39.85;29.50;;;1.00;99.90;;;;;;4979998;28;20406;-76
2021/03/01 01:57:54;;;;;;;43.58;30.88;;;0.90;99.90;;;;;;4991879;28;20409;-76
2021/03/01 02:00:45;;;;;;;45.58;31.48;;;1.50;99.90;;;;;;4980735;28;20391;-75
2021/03/01 02:03:29;;;;;;;42.22;29.95;;;1.20;99.90;;;;;;4979539;28;20430;-78
2021/03/01 02:05:59;;;;;;;42.28;30.30;;;1.60;99.90;;;;;;4979793;28;20404;-77
2021/03/01 02:08:30;;;;;;;40.67;29.20;;;1.40;99.90;;;;;;4992839;28;20394;-78
2021/03/01 02:11:10;;;;;;;44.05;30.73;;;1.60;99.90;;;;;;4979675;28;20396;-77
2021/03/01 02:14:21;;;;;;;44.10;30.70;;;1.50;99.90;;;;;;4982011;28;20452;-77
2021/03/01 02:16:47;;;;;;;43.25;31.88;;;;;;;;;;4951665;28;20401;-77
2021/03/01 02:19:15;;;;;;;45.70;32.13;;;0.80;99.90;;;;;;4951641;29;20386;-77
2021/03/01 02:21:45;;;;;;;45.75;32.90;;;1.60;99.90;;;;;;4972282;28;20383;-77
2021/03/01 02:24:14;;;;;;;50.47;35.38;;;1.20;99.90;;;;;;4980162;28;20753;-77
2021/03/01 02:26:43;;;;;;;46.15;34.38;;;1.10;99.90;;;;;;4992682;28;20422;-76
2021/03/01 02:29:13;;;;;;;49.60;34.50;;;1.60;99.90;;;;;;4987860;28;20871;-77
2021/03/01 02:31:41;;;;;;;47.35;35.15;;;0.80;99.90;;;;;;4974314;28;20392;-77
2021/03/01 02:34:08;;;;;;;47.65;34.50;;;1.20;99.90;;;;;;4996786;28;20455;-76
2021/03/01 02:36:46;;;;;;;52.63;36.63;;;1.50;99.90;;;;;;5000136;28;20473;-77
2021/03/01 02:39:15;;;;;;;55.65;38.15;;;1.50;99.90;;;;;;4992242;28;20437;-77
2021/03/01 02:41:42;;;;;;;49.53;36.22;;;1.00;99.90;;;;;;4986803;28;20429;-76
2021/03/01 02:44:07;;;;;;;46.45;34.75;;;1.50;99.90;;;;;;4984982;28;20393;-77
2021/03/01 02:46:35;;;;;;;48.78;35.95;;;0.90;99.90;;;;;;4986082;28;20394;-77
2021/03/01 02:49:02;;;;;;;49.42;35.70;;;1.80;99.90;;;;;;4979886;28;20390;-77
2021/03/01 02:51:28;;;;;;;49.08;34.55;;;1.60;99.90;;;;;;4991202;28;20378;-78
2021/03/01 02:53:55;;;;;;;50.38;34.15;;;1.30;99.90;;;;;;4980011;28;20394;-77
2021/03/01 02:56:22;;;;;;;51.53;36.35;;;1.10;99.90;;;;;;4977946;28;20394;-76
2021/03/01 02:58:49;;;;;;;51.30;35.20;;;1.70;99.90;;;;;;4972679;28;20410;-77
2021/03/01 03:01:17;;;;;;;51.00;36.08;;;0.80;99.90;;;;;;4985998;28;20406;-76
2021/03/01 03:03:44;;;;;;;50.00;35.97;;;0.70;99.90;;;;;;4980557;28;20390;-77
2021/03/01 03:06:18;;;;;;;52.33;36.72;;;;;;;;;;4978821;28;20415;-80
2021/03/01 03:08:44;;;;;;;50.45;35.95;;;0.90;99.90;;;;;;4985067;28;20393;-76
2021/03/01 03:11:11;;;;;;;50.95;35.25;;;1.10;99.90;;;;;;4984802;28;20396;-77
2021/03/01 03:13:37;;;;;;;47.72;34.47;;;1.20;99.90;;;;;;4972166;28;20408;-76
2021/03/01 03:16:06;;;;;;;51.25;36.05;;;1.00;99.90;;;;;;4988383;28;20401;-76
2021/03/01 03:18:32;;;;;;;51.45;35.55;;;1.00;99.90;;;;;;4981216;28;20398;-76
2021/03/01 03:20:58;;;;;;;49.75;35.55;;;0.80;99.90;;;;;;4975689;28;20485;-76
2021/03/01 03:23:25;;;;;;;52.58;36.13;;;0.60;99.90;;;;;;4980968;28;20396;-76
2021/03/01 03:25:52;;;;;;;51.10;35.93;;;0.60;99.90;;;;;;4989047;28;20406;-77
2021/03/01 03:28:17;;;;;;;54.42;36.17;;;0.80;99.90;;;;;;4980526;28;20882;-77
2021/03/01 03:30:43;;;;;;;56.03;37.60;;;0.60;99.90;;;;;;4971799;28;20396;-77
2021/03/01 03:33:09;;;;;;;48.83;35.30;;;0.70;99.90;;;;;;4981669;28;20390;-77
2021/03/01 03:35:35;;;;;;;51.25;35.97;;;0.50;99.90;;;;;;4991437;28;20477;-77
2021/03/01 03:38:05;;;;;;;51.90;35.73;;;0.70;99.90;;;;;;4981257;28;20479;-77
2021/03/01 03:40:31;;;;;;;59.05;37.92;;;0.50;99.90;;;;;;4988722;28;20489;-77
2021/03/01 03:42:58;;;;;;;56.17;37.67;;;0.80;99.90;;;;;;4991029;28;20390;-77
2021/03/01 03:45:26;;;;;;;56.50;38.05;;;0.40;99.90;;;;;;4978164;28;20441;-76
2021/03/01 03:47:54;;;;;;;54.60;37.55;;;0.60;99.90;;;;;;4980191;28;20399;-77
2021/03/01 03:50:24;;;;;;;50.20;36.15;;;0.30;99.90;;;;;;4989463;28;20465;-76
2021/03/01 03:53:00;;;;;;;48.87;36.60;;;0.40;99.90;;;;;;4979139;28;20456;-77
2021/03/01 03:55:27;;;;;;;56.45;38.53;;;0.50;99.90;;;;;;4971607;28;20380;-76
2021/03/01 03:58:00;;;;;;;52.85;37.65;;;0.20;99.90;;;;;;4971661;28;20454;-76
2021/03/01 04:00:27;;;;;;;56.85;39.03;;;0.50;99.90;;;;;;4978891;28;20379;-77
2021/03/01 04:02:57;;;;;;;52.20;37.03;;;0.60;99.90;;;;;;4990743;28;20394;-77
2021/03/01 04:05:25;;;;;;;52.88;37.33;;;0.40;99.90;;;;;;4990848;28;20880;-77
2021/03/01 04:07:52;;;;;;;54.10;37.72;;;0.70;99.90;;;;;;4990785;28;20390;-77
2021/03/01 04:10:18;;;;;;;56.28;38.47;;;0.60;99.90;;;;;;4990943;28;20405;-78
2021/03/01 04:12:48;;;;;;;53.58;37.55;;;0.80;99.90;;;;;;4976414;28;20400;-77
2021/03/01 04:15:16;;;;;;;57.97;39.13;;;0.40;99.90;;;;;;4980242;28;20394;-77
2021/03/01 04:17:43;;;;;;;55.10;37.53;;;0.90;99.90;;;;;;4988836;28;20465;-77
2021/03/01 04:20:10;;;;;;;51.92;36.30;;;0.50;99.90;;;;;;4980542;28;20538;-76
2021/03/01 04:22:39;;;;;;;58.50;38.80;;;0.80;99.90;;;;;;4977492;28;20408;-78
2021/03/01 04:25:06;;;;;;;53.63;37.00;;;0.50;99.90;;;;;;4981506;28;20412;-77
2021/03/01 04:27:37;;;;;;;55.97;38.10;;;0.60;99.90;;;;;;4984593;28;20380;-77
2021/03/01 04:30:06;;;;;;;57.13;37.58;;;0.50;99.90;;;;;;4981465;28;20470;-77
2021/03/01 04:32:33;;;;;;;54.13;37.30;;;0.30;99.90;;;;;;4977530;28;20383;-78
2021/03/01 04:35:00;;;;;;;54.43;37.83;;;0.60;99.90;;;;;;4991025;28;20451;-78
2021/03/01 04:37:26;;;;;;;56.38;38.45;;;0.40;99.90;;;;;;4985463;28;20396;-77
2021/03/01 04:39:51;;;;;;;62.17;39.92;;;0.30;99.90;;;;;;4983621;28;20401;-76
2021/03/01 04:42:18;;;;;;;54.30;37.17;;;0.20;99.90;;;;;;4990408;28;20398;-76
2021/03/01 04:44:46;;;;;;;59.40;38.75;;;0.20;99.90;;;;;;4993221;28;20923;-77
2021/03/01 04:47:14;;;;;;;56.38;38.13;;;0.10;99.90;;;;;;4981071;28;20394;-77
2021/03/01 04:49:40;;;;;;;55.03;37.97;;;0.30;99.90;;;;;;4981600;28;20388;-77
2021/03/01 04:52:06;;;;;;;60.40;40.33;;;0.20;99.90;;;;;;4980730;28;20413;-77
2021/03/01 04:54:33;;;;;;;63.88;42.22;;;0.10;99.90;;;;;;4994121;28;20406;-77
2021/03/01 04:56:59;;;;;;;57.88;39.78;;;;;;;;;;4994042;28;20422;-77
2021/03/01 04:59:26;;;;;;;55.30;38.38;;;0.80;99.90;;;;;;4994260;28;20790;-77
2021/03/01 05:01:53;;;;;;;62.70;40.50;;;0.20;99.90;;;;;;4974697;28;20392;-77
2021/03/01 05:04:19;;;;;;;55.22;36.53;;;0.10;99.90;;;;;;4974331;28;20416;-77
2021/03/01 05:06:45;;;;;;;57.85;38.35;;;0.10;99.90;;;;;;4974533;28;20447;-77
2021/03/01 05:09:11;;;;;;;59.00;39.28;;;0.30;99.90;;;;;;4974318;28;20475;-76
2021/03/01 05:11:38;;;;;;;58.10;38.30;;;0.40;99.90;;;;;;4974011;28;20439;-76
2021/03/01 05:14:05;;;;;;;55.08;37.15;;;0.30;99.90;;;;;;4986979;28;20888;-76
2021/03/01 05:16:32;;;;;;;51.15;36.50;;;0.30;99.90;;;;;;4993593;28;20424;-76
2021/03/01 05:18:58;;;;;;;56.35;37.85;;;0.40;99.90;;;;;;4980525;28;20385;-78
2021/03/01 05:21:24;;;;;;;56.55;37.95;;;0.40;99.90;;;;;;4980442;28;20393;-78
2021/03/01 05:23:50;;;;;;;63.57;41.00;;;0.40;99.90;;;;;;4993719;28;20383;-78
2021/03/01 05:26:17;;;;;;;58.72;39.80;;;0.20;99.90;;;;;;4993899;28;20497;-78
2021/03/01 05:28:43;;;;;;;56.50;38.28;;;0.40;99.90;;;;;;4980765;28;20728;-76
2021/03/01 05:31:08;;;;;;;62.88;41.05;;;0.30;99.90;;;;;;4986606;28;20399;-77
2021/03/01 05:33:35;;;;;;;63.20;40.47;;;0.00;99.90;;;;;;4987433;28;20476;-78
2021/03/01 05:36:01;;;;;;;62.00;40.30;;;0.00;99.90;;;;;;4993493;28;20394;-77
2021/03/01 05:38:27;;;;;;;63.93;42.17;;;0.40;99.90;;;;;;4980681;28;20750;-78
2021/03/01 05:40:53;;;;;;;64.55;42.63;;;-0.20;99.90;;;;;;4986129;28;20397;-77
2021/03/01 05:43:21;;;;;;;63.97;41.05;;;0.50;99.90;;;;;;4986898;28;20880;-77
2021/03/01 05:45:48;;;;;;;56.72;38.70;;;0.30;99.90;;;;;;4981683;28;20406;-77
2021/03/01 05:48:14;;;;;;;65.20;41.40;;;0.20;99.90;;;;;;4980014;28;20403;-77
2021/03/01 05:50:43;;;;;;;64.57;42.13;;;-0.20;99.90;;;;;;4985828;28;20786;-78
2021/03/01 05:53:11;;;;;;;64.35;41.45;;;0.00;99.90;;;;;;4986872;28;20422;-78
2021/03/01 05:55:36;;;;;;;63.25;42.15;;;0.10;99.90;;;;;;4981215;28;20397;-77
2021/03/01 05:58:02;;;;;;;64.38;41.30;;;0.40;99.90;;;;;;4978859;28;20396;-77
2021/03/01 06:00:28;;;;;;;63.87;42.87;;;0.30;99.90;;;;;;4981503;28;21079;-77
2021/03/01 06:02:57;;;;;;;66.85;45.13;;;-0.50;99.90;;;;;;4989597;28;20407;-79
2021/03/01 06:05:24;;;;;;;65.50;43.03;;;0.20;99.90;;;;;;4984106;28;20412;-80
2021/03/01 06:07:51;;;;;;;69.70;43.87;;;0.20;99.90;;;;;;4987129;28;20389;-78
2021/03/01 06:10:16;;;;;;;63.47;41.78;;;0.00;99.90;;;;;;4981546;28;20390;-79
2021/03/01 06:12:42;;;;;;;63.73;41.83;;;0.30;99.90;;;;;;4980179;28;20373;-77
2021/03/01 06:15:09;;;;;;;61.87;40.40;;;-0.10;99.90;;;;;;4993927;28;20394;-79
2021/03/01 06:17:35;;;;;;;74.25;47.17;;;0.50;99.90;;;;;;4981825;28;20400;-79
2021/03/01 06:20:01;;;;;;;70.77;43.43;;;-0.10;99.90;;;;;;4985028;28;20396;-79
2021/03/01 06:22:38;;;;;;;81.78;46.25;;;0.00;99.90;;;;;;4987628;28;20386;-79
2021/03/01 06:25:08;;;;;;;64.43;42.10;;;-3.70;99.90;;;;;;4983600;28;20407;-79
2021/03/01 06:27:52;;;;;;;62.05;41.05;;;-0.30;99.90;;;;;;4980574;28;20399;-80
2021/03/01 06:30:20;;;;;;;59.88;39.45;;;0.10;99.90;;;;;;4980867;28;20766;-79
2021/03/01 06:33:12;;;;;;;56.13;38.40;;;-0.30;99.90;;;;;;4973851;28;20728;-79
2021/03/01 06:35:50;;;;;;;66.10;42.53;;;0.00;99.90;;;;;;4990457;28;20757;-81
2021/03/01 06:38:25;;;;;;;67.30;42.20;;;0.10;99.90;;;;;;4981432;28;20396;-79
2021/03/01 06:41:09;;;;;;;64.03;40.45;;;0.20;99.90;;;;;;4979827;28;20868;-81
2021/03/01 06:43:36;;;;;;;64.50;41.47;;;0.10;99.90;;;;;;4990531;28;20426;-78
2021/03/01 06:46:14;;;;;;;64.30;41.10;;;-0.40;99.90;;;;;;4982538;28;20402;-79
2021/03/01 06:48:42;;;;;;;60.22;40.28;;;0.10;99.90;;;;;;4992124;28;20398;-78
2021/03/01 06:51:09;;;;;;;59.22;38.53;;;0.30;99.90;;;;;;4992283;28;20391;-79
2021/03/01 06:53:36;;;;;;;57.40;37.53;;;0.90;99.90;;;;;;4986340;28;20399;-80
2021/03/01 06:56:04;;;;;;;64.05;41.47;;;0.40;99.90;;;;;;4984825;28;20453;-81
2021/03/01 06:58:35;;;;;;;64.20;41.33;;;0.10;99.90;;;;;;4978985;28;20409;-80
2021/03/01 07:01:15;;;;;;;61.20;39.88;;;0.30;99.90;;;;;;4980150;28;20384;-79
2021/03/01 07:03:43;;;;;;;63.70;40.67;;;0.40;99.90;;;;;;4972999;28;20380;-79
2021/03/01 07:06:09;;;;;;;59.40;39.88;;;;;;;;;;4987960;28;20422;-78
2021/03/01 07:08:55;;;;;;;59.85;39.35;;;0.60;99.90;;;;;;4988681;28;20423;-78
2021/03/01 07:11:29;;;;;;;67.43;42.40;;;0.60;99.90;;;;;;4976913;28;20405;-78
2021/03/01 07:14:05;;;;;;;64.20;42.67;;;0.70;99.90;;;;;;4989137;28;20425;-78
2021/03/01 07:16:41;;;;;;;68.93;43.08;;;0.70;99.90;;;;;;4997219;28;20383;-78
2021/03/01 07:19:14;;;;;;;64.78;40.85;;;1.00;99.90;;;;;;4995453;28;20396;-78
2021/03/01 07:21:41;;;;;;;68.03;42.45;;;0.80;99.90;;;;;;4976624;28;20423;-73
2021/03/01 07:24:08;;;;;;;65.30;41.92;;;0.80;99.90;;;;;;4979430;28;20380;-78
2021/03/01 07:26:36;;;;;;;66.45;43.70;;;1.10;99.90;;;;;;4991896;28;20819;-78
2021/03/01 07:29:15;;;;;;;74.70;50.70;;;1.10;99.90;;;;;;4976896;28;20471;-78
2021/03/01 07:31:59;;;;;;;62.63;43.17;;;0.60;99.90;;;;;;4988701;28;20757;-78
2021/03/01 07:34:25;;;;;;;62.75;42.95;;;0.90;99.90;;;;;;4991420;28;20385;-78
2021/03/01 07:36:55;;;;;;;63.07;41.00;;;0.70;99.90;;;;;;5001601;28;20437;-78
2021/03/01 07:39:22;;;;;;;60.35;41.85;;;0.90;99.90;;;;;;4976867;28;20882;-78
2021/03/01 07:41:48;;;;;;;58.65;41.08;;;0.60;99.90;;;;;;4990260;28;20876;-78
2021/03/01 07:44:22;;;;;;;54.95;38.28;;;1.70;99.90;;;;;;4976731;28;20388;-78
2021/03/01 07:46:48;;;;;;;56.67;38.28;;;1.80;99.90;;;;;;4977147;28;20435;-77
2021/03/01 07:49:35;;;;;;;56.35;38.75;;;2.30;99.90;;;;;;4992948;28;20481;-77
2021/03/01 07:52:00;;;;;;;54.40;38.97;;;1.30;99.90;;;;;;4984541;28;20387;-78
2021/03/01 07:54:52;;;;;;;50.53;35.42;;;0.80;99.90;;;;;;4993114;28;20470;-78
2021/03/01 07:57:19;;;;;;;52.95;37.10;;;;;;;;;;4985068;28;20390;-79
2021/03/01 07:59:45;;;;;;;51.47;35.80;;;;;;;;;;4981729;28;20396;-78
2021/03/01 08:06:27;;;;;;;49.60;35.30;;;1.50;99.90;;;;;;4983220;28;20518;-79
2021/03/01 08:10:01;;;;;;;46.92;33.70;;;2.60;99.90;;;;;;4960037;28;20422;-79
2021/03/01 08:12:29;;;;;;;43.40;32.63;;;2.20;99.90;;;;;;4964375;28;20761;-78
2021/03/01 08:14:57;;;;;;;43.67;32.33;;;2.10;99.90;;;;;;4993013;28;20769;-78
2021/03/01 08:17:26;;;;;;;44.60;31.60;;;2.10;99.90;;;;;;4997107;28;20971;-78
2021/03/01 08:19:52;;;;;;;42.15;30.75;;;1.90;99.90;;;;;;4993892;28;20403;-78
2021/03/01 08:22:18;;;;;;;44.20;31.17;;;2.00;99.90;;;;;;4980710;28;20411;-78
2021/03/01 08:24:47;;;;;;;41.30;30.48;;;;;;;;;;4980266;28;21017;-78
2021/03/01 08:27:25;;;;;;;39.47;30.23;;;;;;;;;;4994701;28;20870;-79
2021/03/01 08:30:23;;;;;;;41.85;30.60;;;3.20;99.90;;;;;;5001763;28;20393;-78
2021/03/01 08:33:08;;;;;;;39.97;29.83;;;2.60;99.90;;;;;;4992979;28;20496;-78
2021/03/01 08:35:44;;;;;;;42.25;30.58;;;3.10;99.90;;;;;;5013337;28;20404;-79
2021/03/01 08:38:13;;;;;;;53.13;31.83;;;;;;;;;;5001106;28;20420;-79
2021/03/01 08:44:51;;;;;;;38.45;28.20;;;3.50;99.90;;;;;;5004458;28;20441;-79
2021/03/01 08:47:22;;;;;;;38.85;29.08;;;;;;;;;;4991069;28;20952;-79
2021/03/01 08:50:30;;;;;;;38.17;28.88;;;3.40;99.90;;;;;;4988941;28;20438;-80
2021/03/01 08:52:57;;;;;;;39.13;27.38;;;;;;;;;;4994424;28;20479;-79
2021/03/01 08:55:23;;;;;;;39.28;27.63;;;4.10;99.90;;;;;;4980881;28;20396;-79
2021/03/01 08:58:12;;;;;;;34.53;25.67;;;3.90;99.90;;;;;;4995831;28;20386;-78
2021/03/01 09:00:58;;;;;;;36.63;26.45;;;3.90;99.90;;;;;;4983075;28;20377;-79
2021/03/01 09:03:31;;;;;;;34.03;26.08;;;3.80;99.90;;;;;;4987255;28;20897;-79
2021/03/01 09:06:06;;;;;;;33.10;25.90;;;;;;;;;;4996512;28;20413;-80
2021/03/01 09:08:42;;;;;;;34.35;25.70;;;;;;;;;;4992469;28;20824;-80
2021/03/01 09:11:21;;;;;;;30.33;23.33;;;4.10;99.90;;;;;;4993326;28;20844;-79
2021/03/01 09:13:51;;;;;;;35.55;24.85;;;;;;;;;;4981807;28;20423;-79
2021/03/01 09:16:23;;;;;;;32.05;24.05;;;4.00;99.90;;;;;;4987088;28;20695;-79
2021/03/01 09:18:49;;;;;;;31.88;24.13;;;;;;;;;;4988268;28;20510;-79
2021/03/01 09:21:16;;;;;;;31.38;23.80;;;;;;;;;;4981531;28;20392;-79
2021/03/01 09:23:49;;;;;;;33.17;23.58;;;5.20;99.90;;;;;;4993805;28;20385;-79
2021/03/01 09:26:35;;;;;;;30.90;23.00;;;;;;;;;;5001139;28;20423;-79
2021/03/01 09:29:15;;;;;;;30.52;22.73;;;4.60;99.90;;;;;;4980794;28;20469;-79
2021/03/01 09:31:47;;;;;;;32.30;23.08;;;;;;;;;;4992505;28;20429;-79
2021/03/01 09:34:14;;;;;;;32.15;22.40;;;5.50;99.90;;;;;;4987764;28;20490;-78
2021/03/01 09:36:47;;;;;;;29.67;23.10;;;5.60;99.90;;;;;;4987675;28;20396;-78
2021/03/01 09:39:17;;;;;;;29.33;22.02;;;4.70;99.90;;;;;;4979524;28;20983;-78
2021/03/01 09:41:42;;;;;;;27.98;20.45;;;4.90;99.90;;;;;;4987942;28;20501;-78
2021/03/01 09:44:08;;;;;;;27.05;21.48;;;5.50;99.90;;;;;;4985611;28;20469;-78
2021/03/01 09:46:35;;;;;;;29.17;21.08;;;6.50;99.90;;;;;;4985149;28;20400;-78
2021/03/01 09:49:04;;;;;;;29.35;20.98;;;5.80;99.90;;;;;;4978631;28;20428;-78
2021/03/01 09:51:31;;;;;;;28.25;20.42;;;5.90;99.90;;;;;;4991568;28;20391;-78
2021/03/01 09:54:02;;;;;;;29.48;20.48;;;6.20;99.90;;;;;;4990293;28;20921;-79
2021/03/01 09:56:47;;;;;;;30.27;20.83;;;6.20;99.90;;;;;;4995631;28;20423;-78
2021/03/01 09:59:39;;;;;;;27.60;20.58;;;6.20;99.90;;;;;;4995053;28;20400;-78
2021/03/01 10:02:10;;;;;;;29.45;20.38;;;6.30;99.90;;;;;;4994884;28;20396;-79
2021/03/01 10:04:36;;;;;;;28.17;20.10;;;6.10;99.90;;;;;;4978863;28;20434;-78
2021/03/01 10:07:15;;;;;;;26.95;21.02;;;6.40;99.90;;;;;;4980324;28;20779;-78
2021/03/01 10:09:40;;;;;;;30.08;21.48;;;6.40;99.90;;;;;;4993619;28;20457;-78
2021/03/01 10:12:06;;;;;;;27.08;20.05;;;;;;;;;;4989778;28;20415;-78
2021/03/01 10:14:32;;;;;;;26.23;19.20;;;6.50;99.90;;;;;;4981693;28;20818;-77
2021/03/01 10:16:58;;;;;;;25.60;18.43;;;6.50;99.90;;;;;;4989191;28;20420;-78
2021/03/01 10:19:23;;;;;;;29.30;19.70;;;6.60;99.90;;;;;;4995195;28;20398;-78
2021/03/01 10:21:50;;;;;;;26.30;18.27;;;6.80;99.90;;;;;;4990263;28;20391;-78
2021/03/01 10:24:18;;;;;;;26.27;18.88;;;6.80;99.90;;;;;;4979694;28;20416;-78
2021/03/01 10:26:52;;;;;;;27.08;19.38;;;6.90;99.90;;;;;;4989948;28;20410;-79
2021/03/01 10:29:18;;;;;;;27.65;18.70;;;7.30;99.90;;;;;;4999638;28;20433;-78
2021/03/01 10:31:43;;;;;;;23.90;17.00;;;7.00;99.90;;;;;;4987093;28;20464;-78
2021/03/01 10:34:11;;;;;;;24.20;17.55;;;7.40;99.90;;;;;;4989777;28;20384;-78
2021/03/01 10:36:40;;;;;;;24.67;17.58;;;7.20;99.90;;;;;;5007562;28;20492;-78
2021/03/01 10:39:15;;;;;;;26.55;18.00;;;7.30;99.90;;;;;;5002326;28;20397;-78
2021/03/01 10:41:47;;;;;;;24.80;17.17;;;7.60;99.90;;;;;;4998814;28;20408;-78
2021/03/01 10:44:14;;;;;;;24.70;17.33;;;7.50;99.90;;;;;;4995893;28;20416;-79
2021/03/01 10:46:48;;;;;;;21.25;15.38;;;7.60;99.90;;;;;;4994802;28;20411;-78
2021/03/01 10:49:34;;;;;;;21.83;15.35;;;7.50;99.90;;;;;;4989114;28;20390;-78
2021/03/01 10:51:59;;;;;;;23.27;15.57;;;7.80;99.90;;;;;;4981999;28;20391;-79
2021/03/01 10:54:26;;;;;;;24.20;15.57;;;8.00;99.90;;;;;;4981277;28;20457;-78
2021/03/01 10:56:53;;;;;;;22.58;14.95;;;7.70;99.90;;;;;;4980709;28;20882;-78
2021/03/01 10:59:19;;;;;;;21.77;14.88;;;;;;;;;;4992622;28;20761;-79
2021/03/01 11:01:47;;;;;;;21.45;14.73;;;8.30;99.90;;;;;;5001851;28;20379;-78
2021/03/01 11:04:14;;;;;;;20.58;14.15;;;8.00;99.90;;;;;;5002189;28;20426;-78
2021/03/01 11:06:40;;;;;;;21.90;14.73;;;;;;;;;;4989751;28;20763;-78
2021/03/01 11:09:08;;;;;;;21.58;14.73;;;8.80;99.90;;;;;;5016534;28;20388;-78
2021/03/01 11:11:36;;;;;;;19.20;13.37;;;9.00;99.90;;;;;;5002547;28;20848;-78
2021/03/01 11:14:02;;;;;;;18.92;12.93;;;9.00;99.90;;;;;;5015671;28;20770;-78
2021/03/01 11:16:28;;;;;;;18.48;13.35;;;8.20;99.90;;;;;;5013132;28;20395;-78
2021/03/01 11:18:53;;;;;;;19.75;13.60;;;8.50;99.90;;;;;;5018131;28;20396;-78
2021/03/01 11:21:19;;;;;;;19.95;13.65;;;8.40;99.90;;;;;;5002432;28;20395;-78
2021/03/01 11:23:46;;;;;;;22.42;13.13;;;9.20;99.90;;;;;;5015497;28;20428;-78
2021/03/01 11:26:14;;;;;;;18.75;13.00;;;8.60;99.90;;;;;;5002274;28;20400;-78
2021/03/01 11:28:40;;;;;;;17.57;12.73;;;9.00;99.90;;;;;;5007173;28;20395;-78
2021/03/01 11:31:06;;;;;;;18.10;12.57;;;9.00;99.90;;;;;;4993806;28;20380;-78
2021/03/01 11:33:32;;;;;;;16.87;12.13;;;9.50;99.90;;;;;;5015514;28;20392;-78
2021/03/01 11:35:57;;;;;;;17.43;12.00;;;9.60;99.90;;;;;;4986142;28;20452;-78
2021/03/01 11:38:26;;;;;;;17.13;12.63;;;;;;;;;;5001089;28;20386;-78
2021/03/01 11:40:55;;;;;;;16.90;12.23;;;9.60;99.90;;;;;;4999292;28;20412;-78
2021/03/01 11:43:21;;;;;;;17.58;12.20;;;9.40;99.90;;;;;;5009648;28;20435;-78
2021/03/01 11:45:49;;;;;;;15.75;11.40;;;;;;;;;;5003675;28;21044;-78
2021/03/01 11:48:15;;;;;;;15.75;11.30;;;9.90;99.90;;;;;;5000537;28;20417;-78
2021/03/01 11:50:47;;;;;;;15.57;11.15;;;10.40;99.90;;;;;;5003204;28;20389;-78
2021/03/01 11:53:14;;;;;;;16.10;11.40;;;9.80;99.90;;;;;;5003068;28;20418;-78
2021/03/01 11:55:40;;;;;;;15.65;11.35;;;10.00;99.90;;;;;;5005483;28;20473;-78
2021/03/01 11:58:06;;;;;;;17.40;11.73;;;10.20;99.90;;;;;;5008116;28;20388;-78
2021/03/01 12:00:32;;;;;;;16.00;11.57;;;10.20;99.90;;;;;;5007628;28;20422;-78
2021/03/01 12:02:58;;;;;;;15.57;10.83;;;10.60;99.90;;;;;;5018251;28;20433;-78
2021/03/01 12:05:24;;;;;;;13.95;10.23;;;;;;;;;;5015256;28;20418;-78
2021/03/01 12:07:53;;;;;;;14.07;10.27;;;;;;;;;;5013249;28;20395;-79
2021/03/01 12:10:19;;;;;;;16.73;10.80;;;;;;;;;;5019083;28;20705;-79
2021/03/01 12:12:47;;;;;;;13.02;9.57;;;12.00;99.90;;;;;;5004256;28;20420;-80
2021/03/01 12:15:15;;;;;;;11.77;8.98;;;13.50;99.90;;;;;;5017084;28;20439;-80
2021/03/01 12:17:41;;;;;;;12.27;9.35;;;13.70;99.90;;;;;;5008966;28;20396;-80
2021/03/01 12:20:07;;;;;;;11.83;8.57;;;13.00;99.90;;;;;;5019889;28;20393;-80
2021/03/01 12:22:33;;;;;;;13.27;8.67;;;;;;;;;;5017837;28;20502;-80
2021/03/01 12:25:11;;;;;;;18.45;9.05;;;14.70;99.90;;;;;;5009384;28;20374;-80
2021/03/01 12:27:38;;;;;;;12.55;8.77;;;15.20;99.90;;;;;;5008187;28;20417;-80
2021/03/01 12:30:06;;;;;;;11.75;8.90;;;15.80;99.90;;;;;;5001457;28;20391;-80
2021/03/01 12:32:32;;;;;;;11.77;7.90;;;15.70;99.90;;;;;;4988183;28;20795;-80
2021/03/01 12:34:59;;;;;;;9.80;7.80;;;17.10;99.90;;;;;;5011461;28;20412;-80
2021/03/01 12:37:30;;;;;;;9.93;7.10;;;16.70;99.90;;;;;;5004345;28;20482;-80
2021/03/01 12:39:56;;;;;;;10.40;7.00;;;16.60;99.90;;;;;;4988631;28;20419;-80
2021/03/01 12:42:23;;;;;;;11.23;6.68;;;14.60;99.90;;;;;;5003809;28;20403;-80
2021/03/01 12:44:49;;;;;;;9.35;6.45;;;15.60;97.60;;;;;;5001942;28;20382;-80
2021/03/01 12:47:15;;;;;;;9.07;6.18;;;12.30;99.90;;;;;;5004108;28;20427;-79
2021/03/01 12:49:41;;;;;;;13.48;7.03;;;;;;;;;;5009059;28;20394;-79
2021/03/01 12:52:07;;;;;;;11.05;6.40;;;;;;;;;;5000263;28;20797;-79
2021/03/01 12:54:33;;;;;;;9.23;6.28;;;;;;;;;;5016735;28;20494;-79
2021/03/01 12:56:59;;;;;;;9.55;6.53;;;13.60;99.90;;;;;;5003643;28;20401;-78
2021/03/01 12:59:25;;;;;;;9.57;6.30;;;13.80;99.90;;;;;;5004729;28;20391;-79
2021/03/01 13:01:51;;;;;;;8.55;6.30;;;13.20;99.90;;;;;;4999059;28;20396;-79
2021/03/01 13:04:17;;;;;;;9.75;6.70;;;13.70;99.90;;;;;;5028211;28;20395;-79